sensor_id;sensor_type;location;lat;lon;timestamp;P1;durP1;ratioP1;P2;durP2;ratioP2
20336;SDS011;10326;53.660;10.200;2022-08-02T00:00:56;2.35;;;1.48;;
20336;SDS011;10326;53.660;10.200;2022-08-02T00:03:23;2.75;;;1.40;;
20336;SDS011;10326;53.660;10.200;2022-08-02T00:05:52;3.65;;;1.55;;
20336;SDS011;10326;53.660;10.200;2022-08-02T00:08:19;2.63;;;1.50;;
20336;SDS011;10326;53.660;10.200;2022-08-02T00:10:46;3.38;;;1.70;;
20336;SDS011;10326;53.660;10.200;2022-08-02T00:13:14;1.63;;;1.00;;
20336;SDS011;10326;53.660;10.200;2022-08-02T00:15:41;3.72;;;1.50;;
20336;SDS011;10326;53.660;10.200;2022-08-02T00:18:08;3.30;;;1.42;;
20336;SDS011;10326;53.660;10.200;2022-08-02T00:20:35;2.00;;;1.48;;
20336;SDS011;10326;53.660;10.200;2022-08-02T00:23:03;2.88;;;1.40;;
20336;SDS011;10326;53.660;10.200;2022-08-02T00:25:30;3.28;;;1.40;;
20336;SDS011;10326;53.660;10.200;2022-08-02T00:27:57;1.73;;;1.30;;
20336;SDS011;10326;53.660;10.200;2022-08-02T00:30:24;2.50;;;1.42;;
20336;SDS011;10326;53.660;10.200;2022-08-02T00:32:51;2.20;;;1.40;;
20336;SDS011;10326;53.660;10.200;2022-08-02T00:35:19;3.15;;;1.40;;
20336;SDS011;10326;53.660;10.200;2022-08-02T00:37:46;1.65;;;1.30;;
20336;SDS011;10326;53.660;10.200;2022-08-02T00:40:14;3.08;;;1.30;;
20336;SDS011;10326;53.660;10.200;2022-08-02T00:42:41;2.45;;;1.58;;
20336;SDS011;10326;53.660;10.200;2022-08-02T00:45:09;1.58;;;1.40;;
20336;SDS011;10326;53.660;10.200;2022-08-02T00:47:36;1.70;;;1.35;;
20336;SDS011;10326;53.660;10.200;2022-08-02T00:50:03;1.98;;;1.38;;
20336;SDS011;10326;53.660;10.200;2022-08-02T00:52:32;2.15;;;1.60;;
20336;SDS011;10326;53.660;10.200;2022-08-02T00:54:59;2.60;;;1.38;;
20336;SDS011;10326;53.660;10.200;2022-08-02T00:57:27;2.53;;;1.42;;
20336;SDS011;10326;53.660;10.200;2022-08-02T00:59:54;2.92;;;1.40;;
20336;SDS011;10326;53.660;10.200;2022-08-02T01:02:21;3.28;;;1.40;;
20336;SDS011;10326;53.660;10.200;2022-08-02T01:04:48;2.67;;;1.45;;
20336;SDS011;10326;53.660;10.200;2022-08-02T01:07:15;2.58;;;1.63;;
20336;SDS011;10326;53.660;10.200;2022-08-02T01:09:43;3.40;;;1.50;;
20336;SDS011;10326;53.660;10.200;2022-08-02T01:12:10;1.65;;;1.48;;
20336;SDS011;10326;53.660;10.200;2022-08-02T01:14:40;1.52;;;1.27;;
20336;SDS011;10326;53.660;10.200;2022-08-02T01:17:09;2.00;;;1.50;;
20336;SDS011;10326;53.660;10.200;2022-08-02T01:19:42;1.00;;;0.90;;
20336;SDS011;10326;53.660;10.200;2022-08-02T01:22:31;1.98;;;1.20;;
20336;SDS011;10326;53.660;10.200;2022-08-02T01:25:19;1.20;;;1.10;;
20336;SDS011;10326;53.660;10.200;2022-08-02T01:28:27;1.33;;;1.00;;
20336;SDS011;10326;53.660;10.200;2022-08-02T01:31:03;1.13;;;1.02;;
20336;SDS011;10326;53.660;10.200;2022-08-02T01:33:39;1.45;;;0.90;;
20336;SDS011;10326;53.660;10.200;2022-08-02T01:36:10;1.52;;;1.20;;
20336;SDS011;10326;53.660;10.200;2022-08-02T01:38:44;1.83;;;1.10;;
20336;SDS011;10326;53.660;10.200;2022-08-02T01:41:16;2.17;;;1.63;;
20336;SDS011;10326;53.660;10.200;2022-08-02T01:43:46;3.25;;;1.50;;
20336;SDS011;10326;53.660;10.200;2022-08-02T01:46:17;3.95;;;1.67;;
20336;SDS011;10326;53.660;10.200;2022-08-02T01:48:46;2.33;;;1.65;;
20336;SDS011;10326;53.660;10.200;2022-08-02T01:51:16;2.67;;;1.63;;
20336;SDS011;10326;53.660;10.200;2022-08-02T01:54:06;2.20;;;1.27;;
20336;SDS011;10326;53.660;10.200;2022-08-02T01:56:35;2.28;;;1.52;;
20336;SDS011;10326;53.660;10.200;2022-08-02T01:59:04;2.45;;;1.40;;
20336;SDS011;10326;53.660;10.200;2022-08-02T02:01:34;4.03;;;1.40;;
20336;SDS011;10326;53.660;10.200;2022-08-02T02:04:04;1.48;;;1.38;;
20336;SDS011;10326;53.660;10.200;2022-08-02T02:06:33;3.33;;;1.50;;
20336;SDS011;10326;53.660;10.200;2022-08-02T02:09:02;2.47;;;1.50;;
20336;SDS011;10326;53.660;10.200;2022-08-02T02:11:30;2.55;;;1.38;;
20336;SDS011;10326;53.660;10.200;2022-08-02T02:13:58;2.40;;;1.55;;
20336;SDS011;10326;53.660;10.200;2022-08-02T02:16:28;2.03;;;1.60;;
20336;SDS011;10326;53.660;10.200;2022-08-02T02:18:57;1.98;;;1.80;;
20336;SDS011;10326;53.660;10.200;2022-08-02T02:21:27;2.40;;;1.38;;
20336;SDS011;10326;53.660;10.200;2022-08-02T02:23:54;2.72;;;1.60;;
20336;SDS011;10326;53.660;10.200;2022-08-02T02:26:21;2.38;;;1.55;;
20336;SDS011;10326;53.660;10.200;2022-08-02T02:28:49;3.25;;;1.60;;
20336;SDS011;10326;53.660;10.200;2022-08-02T02:31:18;1.83;;;1.33;;
20336;SDS011;10326;53.660;10.200;2022-08-02T02:33:49;2.22;;;1.48;;
20336;SDS011;10326;53.660;10.200;2022-08-02T02:36:25;1.50;;;1.17;;
20336;SDS011;10326;53.660;10.200;2022-08-02T02:38:55;2.65;;;1.40;;
20336;SDS011;10326;53.660;10.200;2022-08-02T02:41:25;1.40;;;1.20;;
20336;SDS011;10326;53.660;10.200;2022-08-02T02:43:52;2.08;;;1.23;;
20336;SDS011;10326;53.660;10.200;2022-08-02T02:46:21;2.28;;;1.40;;
20336;SDS011;10326;53.660;10.200;2022-08-02T02:48:50;1.73;;;1.25;;
20336;SDS011;10326;53.660;10.200;2022-08-02T02:51:18;2.20;;;1.10;;
20336;SDS011;10326;53.660;10.200;2022-08-02T02:53:46;1.70;;;1.33;;
20336;SDS011;10326;53.660;10.200;2022-08-02T02:56:15;1.75;;;1.00;;
20336;SDS011;10326;53.660;10.200;2022-08-02T02:58:42;1.35;;;1.02;;
20336;SDS011;10326;53.660;10.200;2022-08-02T03:01:10;2.58;;;1.30;;
20336;SDS011;10326;53.660;10.200;2022-08-02T03:03:56;1.95;;;1.60;;
20336;SDS011;10326;53.660;10.200;2022-08-02T03:06:27;1.50;;;1.40;;
20336;SDS011;10326;53.660;10.200;2022-08-02T03:08:55;2.85;;;1.60;;
20336;SDS011;10326;53.660;10.200;2022-08-02T03:11:22;1.70;;;1.60;;
20336;SDS011;10326;53.660;10.200;2022-08-02T03:13:54;2.15;;;1.30;;
20336;SDS011;10326;53.660;10.200;2022-08-02T03:16:22;2.97;;;1.35;;
20336;SDS011;10326;53.660;10.200;2022-08-02T03:18:50;2.35;;;1.38;;
20336;SDS011;10326;53.660;10.200;2022-08-02T03:21:18;1.77;;;1.40;;
20336;SDS011;10326;53.660;10.200;2022-08-02T03:23:46;1.65;;;1.50;;
20336;SDS011;10326;53.660;10.200;2022-08-02T03:26:13;2.08;;;1.50;;
20336;SDS011;10326;53.660;10.200;2022-08-02T03:28:41;2.30;;;1.58;;
20336;SDS011;10326;53.660;10.200;2022-08-02T03:31:08;2.97;;;1.42;;
20336;SDS011;10326;53.660;10.200;2022-08-02T03:33:37;2.28;;;1.27;;
20336;SDS011;10326;53.660;10.200;2022-08-02T03:36:06;1.80;;;1.30;;
20336;SDS011;10326;53.660;10.200;2022-08-02T03:38:38;1.42;;;1.10;;
20336;SDS011;10326;53.660;10.200;2022-08-02T03:41:07;1.95;;;1.50;;
20336;SDS011;10326;53.660;10.200;2022-08-02T03:43:35;2.10;;;1.40;;
20336;SDS011;10326;53.660;10.200;2022-08-02T03:46:04;1.50;;;1.33;;
20336;SDS011;10326;53.660;10.200;2022-08-02T03:48:34;1.88;;;1.20;;
20336;SDS011;10326;53.660;10.200;2022-08-02T03:51:03;2.13;;;1.48;;
20336;SDS011;10326;53.660;10.200;2022-08-02T03:53:31;2.72;;;1.50;;
20336;SDS011;10326;53.660;10.200;2022-08-02T03:56:00;1.92;;;1.50;;
20336;SDS011;10326;53.660;10.200;2022-08-02T03:58:28;2.13;;;1.45;;
20336;SDS011;10326;53.660;10.200;2022-08-02T04:00:56;2.03;;;1.63;;
20336;SDS011;10326;53.660;10.200;2022-08-02T04:03:24;1.65;;;1.55;;
20336;SDS011;10326;53.660;10.200;2022-08-02T04:05:52;3.28;;;1.60;;
20336;SDS011;10326;53.660;10.200;2022-08-02T04:08:19;3.47;;;1.48;;
20336;SDS011;10326;53.660;10.200;2022-08-02T04:10:46;3.13;;;1.73;;
20336;SDS011;10326;53.660;10.200;2022-08-02T04:13:33;1.45;;;1.10;;
20336;SDS011;10326;53.660;10.200;2022-08-02T04:16:03;2.17;;;1.70;;
20336;SDS011;10326;53.660;10.200;2022-08-02T04:18:38;1.52;;;1.33;;
20336;SDS011;10326;53.660;10.200;2022-08-02T04:21:10;4.82;;;1.60;;
20336;SDS011;10326;53.660;10.200;2022-08-02T04:23:41;3.50;;;1.77;;
20336;SDS011;10326;53.660;10.200;2022-08-02T04:26:11;2.88;;;1.70;;
20336;SDS011;10326;53.660;10.200;2022-08-02T04:28:40;2.65;;;1.77;;
20336;SDS011;10326;53.660;10.200;2022-08-02T04:31:08;3.08;;;1.52;;
20336;SDS011;10326;53.660;10.200;2022-08-02T04:33:36;3.53;;;1.50;;
20336;SDS011;10326;53.660;10.200;2022-08-02T04:36:04;1.75;;;1.40;;
20336;SDS011;10326;53.660;10.200;2022-08-02T04:38:32;2.38;;;1.73;;
20336;SDS011;10326;53.660;10.200;2022-08-02T04:41:00;5.55;;;2.10;;
20336;SDS011;10326;53.660;10.200;2022-08-02T04:43:27;2.55;;;1.85;;
20336;SDS011;10326;53.660;10.200;2022-08-02T04:45:55;2.90;;;2.28;;
20336;SDS011;10326;53.660;10.200;2022-08-02T04:48:26;3.55;;;2.10;;
20336;SDS011;10326;53.660;10.200;2022-08-02T04:50:54;4.10;;;2.17;;
20336;SDS011;10326;53.660;10.200;2022-08-02T04:53:21;3.05;;;1.77;;
20336;SDS011;10326;53.660;10.200;2022-08-02T04:55:48;2.70;;;1.50;;
20336;SDS011;10326;53.660;10.200;2022-08-02T04:58:15;3.90;;;1.90;;
20336;SDS011;10326;53.660;10.200;2022-08-02T05:00:43;2.63;;;1.40;;
20336;SDS011;10326;53.660;10.200;2022-08-02T05:03:11;1.65;;;1.55;;
20336;SDS011;10326;53.660;10.200;2022-08-02T05:05:39;3.35;;;1.67;;
20336;SDS011;10326;53.660;10.200;2022-08-02T05:08:06;4.20;;;2.08;;
20336;SDS011;10326;53.660;10.200;2022-08-02T05:10:33;2.90;;;1.80;;
20336;SDS011;10326;53.660;10.200;2022-08-02T05:13:02;2.50;;;1.88;;
20336;SDS011;10326;53.660;10.200;2022-08-02T05:15:31;3.03;;;2.35;;
20336;SDS011;10326;53.660;10.200;2022-08-02T05:17:58;3.17;;;1.88;;
20336;SDS011;10326;53.660;10.200;2022-08-02T05:20:27;2.10;;;1.90;;
20336;SDS011;10326;53.660;10.200;2022-08-02T05:22:55;3.83;;;2.03;;
20336;SDS011;10326;53.660;10.200;2022-08-02T05:25:22;2.63;;;1.90;;
20336;SDS011;10326;53.660;10.200;2022-08-02T05:27:49;3.20;;;1.85;;
20336;SDS011;10326;53.660;10.200;2022-08-02T05:30:16;2.67;;;2.08;;
20336;SDS011;10326;53.660;10.200;2022-08-02T05:32:44;3.30;;;1.92;;
20336;SDS011;10326;53.660;10.200;2022-08-02T05:35:12;3.60;;;2.72;;
20336;SDS011;10326;53.660;10.200;2022-08-02T05:37:44;2.38;;;2.03;;
20336;SDS011;10326;53.660;10.200;2022-08-02T05:40:12;3.67;;;2.50;;
20336;SDS011;10326;53.660;10.200;2022-08-02T05:42:39;3.90;;;2.53;;
20336;SDS011;10326;53.660;10.200;2022-08-02T05:45:06;5.63;;;2.65;;
20336;SDS011;10326;53.660;10.200;2022-08-02T05:47:35;3.03;;;2.72;;
20336;SDS011;10326;53.660;10.200;2022-08-02T05:50:02;6.55;;;3.17;;
20336;SDS011;10326;53.660;10.200;2022-08-02T05:52:34;4.30;;;3.13;;
20336;SDS011;10326;53.660;10.200;2022-08-02T05:55:13;5.00;;;3.28;;
20336;SDS011;10326;53.660;10.200;2022-08-02T05:57:47;3.88;;;2.92;;
20336;SDS011;10326;53.660;10.200;2022-08-02T06:00:18;5.15;;;3.20;;
20336;SDS011;10326;53.660;10.200;2022-08-02T06:02:58;6.18;;;3.35;;
20336;SDS011;10326;53.660;10.200;2022-08-02T06:05:31;4.40;;;3.40;;
20336;SDS011;10326;53.660;10.200;2022-08-02T06:08:02;7.10;;;3.58;;
20336;SDS011;10326;53.660;10.200;2022-08-02T06:10:32;7.25;;;3.35;;
20336;SDS011;10326;53.660;10.200;2022-08-02T06:13:04;5.88;;;3.67;;
20336;SDS011;10326;53.660;10.200;2022-08-02T06:15:35;7.68;;;3.42;;
20336;SDS011;10326;53.660;10.200;2022-08-02T06:18:03;7.72;;;4.15;;
20336;SDS011;10326;53.660;10.200;2022-08-02T06:20:32;5.28;;;3.42;;
20336;SDS011;10326;53.660;10.200;2022-08-02T06:23:03;4.65;;;3.25;;
20336;SDS011;10326;53.660;10.200;2022-08-02T06:25:32;9.23;;;3.80;;
20336;SDS011;10326;53.660;10.200;2022-08-02T06:28:03;7.13;;;3.20;;
20336;SDS011;10326;53.660;10.200;2022-08-02T06:30:31;5.65;;;3.10;;
20336;SDS011;10326;53.660;10.200;2022-08-02T06:32:58;7.22;;;3.10;;
20336;SDS011;10326;53.660;10.200;2022-08-02T06:35:28;4.45;;;2.90;;
20336;SDS011;10326;53.660;10.200;2022-08-02T06:38:00;6.13;;;2.90;;
20336;SDS011;10326;53.660;10.200;2022-08-02T06:40:30;4.70;;;2.60;;
20336;SDS011;10326;53.660;10.200;2022-08-02T06:43:10;5.63;;;2.63;;
20336;SDS011;10326;53.660;10.200;2022-08-02T06:45:38;7.13;;;2.75;;
20336;SDS011;10326;53.660;10.200;2022-08-02T06:48:06;8.88;;;2.58;;
20336;SDS011;10326;53.660;10.200;2022-08-02T06:50:35;7.07;;;2.35;;
20336;SDS011;10326;53.660;10.200;2022-08-02T06:53:05;4.63;;;2.63;;
20336;SDS011;10326;53.660;10.200;2022-08-02T06:55:33;5.18;;;2.53;;
20336;SDS011;10326;53.660;10.200;2022-08-02T06:58:00;5.63;;;2.50;;
20336;SDS011;10326;53.660;10.200;2022-08-02T07:00:28;5.50;;;2.60;;
20336;SDS011;10326;53.660;10.200;2022-08-02T07:02:55;5.28;;;2.30;;
20336;SDS011;10326;53.660;10.200;2022-08-02T07:05:23;4.85;;;2.03;;
20336;SDS011;10326;53.660;10.200;2022-08-02T07:07:50;9.90;;;2.63;;
20336;SDS011;10326;53.660;10.200;2022-08-02T07:10:18;3.50;;;2.03;;
20336;SDS011;10326;53.660;10.200;2022-08-02T07:12:45;5.03;;;2.25;;
20336;SDS011;10326;53.660;10.200;2022-08-02T07:15:12;4.55;;;2.35;;
20336;SDS011;10326;53.660;10.200;2022-08-02T07:17:40;5.07;;;2.10;;
20336;SDS011;10326;53.660;10.200;2022-08-02T07:20:07;6.20;;;2.13;;
20336;SDS011;10326;53.660;10.200;2022-08-02T07:22:35;2.47;;;1.65;;
20336;SDS011;10326;53.660;10.200;2022-08-02T07:25:02;5.50;;;2.15;;
20336;SDS011;10326;53.660;10.200;2022-08-02T07:27:32;4.97;;;2.38;;
20336;SDS011;10326;53.660;10.200;2022-08-02T07:29:59;5.15;;;2.30;;
20336;SDS011;10326;53.660;10.200;2022-08-02T07:32:27;4.85;;;1.80;;
20336;SDS011;10326;53.660;10.200;2022-08-02T07:34:56;4.97;;;2.42;;
20336;SDS011;10326;53.660;10.200;2022-08-02T07:37:25;5.30;;;2.42;;
20336;SDS011;10326;53.660;10.200;2022-08-02T07:39:54;5.93;;;2.22;;
20336;SDS011;10326;53.660;10.200;2022-08-02T07:42:22;3.55;;;2.13;;
20336;SDS011;10326;53.660;10.200;2022-08-02T07:44:51;3.72;;;2.05;;
20336;SDS011;10326;53.660;10.200;2022-08-02T07:47:18;3.58;;;2.08;;
20336;SDS011;10326;53.660;10.200;2022-08-02T07:49:45;4.90;;;2.03;;
20336;SDS011;10326;53.660;10.200;2022-08-02T07:52:12;5.78;;;2.00;;
20336;SDS011;10326;53.660;10.200;2022-08-02T07:54:39;4.75;;;2.10;;
20336;SDS011;10326;53.660;10.200;2022-08-02T07:57:06;3.65;;;1.80;;
20336;SDS011;10326;53.660;10.200;2022-08-02T07:59:33;5.10;;;2.20;;
20336;SDS011;10326;53.660;10.200;2022-08-02T08:02:01;4.55;;;1.77;;
20336;SDS011;10326;53.660;10.200;2022-08-02T08:04:29;5.10;;;1.88;;
20336;SDS011;10326;53.660;10.200;2022-08-02T08:06:56;4.47;;;2.03;;
20336;SDS011;10326;53.660;10.200;2022-08-02T08:09:23;3.17;;;1.80;;
20336;SDS011;10326;53.660;10.200;2022-08-02T08:11:51;6.38;;;2.50;;
20336;SDS011;10326;53.660;10.200;2022-08-02T08:14:18;4.47;;;1.65;;
20336;SDS011;10326;53.660;10.200;2022-08-02T08:16:45;4.30;;;2.10;;
20336;SDS011;10326;53.660;10.200;2022-08-02T08:19:14;3.10;;;1.95;;
20336;SDS011;10326;53.660;10.200;2022-08-02T08:21:41;4.25;;;1.70;;
20336;SDS011;10326;53.660;10.200;2022-08-02T08:24:08;6.85;;;2.13;;
20336;SDS011;10326;53.660;10.200;2022-08-02T08:26:35;4.40;;;1.73;;
20336;SDS011;10326;53.660;10.200;2022-08-02T08:29:04;4.53;;;2.05;;
20336;SDS011;10326;53.660;10.200;2022-08-02T08:31:31;3.92;;;1.83;;
20336;SDS011;10326;53.660;10.200;2022-08-02T08:33:58;3.30;;;1.45;;
20336;SDS011;10326;53.660;10.200;2022-08-02T08:36:27;4.32;;;2.00;;
20336;SDS011;10326;53.660;10.200;2022-08-02T08:38:55;3.67;;;1.90;;
20336;SDS011;10326;53.660;10.200;2022-08-02T08:41:22;4.25;;;2.08;;
20336;SDS011;10326;53.660;10.200;2022-08-02T08:43:49;5.28;;;1.60;;
20336;SDS011;10326;53.660;10.200;2022-08-02T08:46:17;4.22;;;1.73;;
20336;SDS011;10326;53.660;10.200;2022-08-02T08:48:52;5.43;;;1.70;;
20336;SDS011;10326;53.660;10.200;2022-08-02T08:51:27;3.78;;;1.85;;
20336;SDS011;10326;53.660;10.200;2022-08-02T08:54:02;3.20;;;1.50;;
20336;SDS011;10326;53.660;10.200;2022-08-02T08:56:34;4.60;;;1.98;;
20336;SDS011;10326;53.660;10.200;2022-08-02T08:59:02;7.68;;;2.08;;
20336;SDS011;10326;53.660;10.200;2022-08-02T09:01:30;6.10;;;1.80;;
20336;SDS011;10326;53.660;10.200;2022-08-02T09:03:58;3.70;;;2.13;;
20336;SDS011;10326;53.660;10.200;2022-08-02T09:06:25;3.58;;;1.60;;
20336;SDS011;10326;53.660;10.200;2022-08-02T09:08:54;5.70;;;2.10;;
20336;SDS011;10326;53.660;10.200;2022-08-02T09:11:22;3.97;;;1.65;;
20336;SDS011;10326;53.660;10.200;2022-08-02T09:13:51;3.65;;;1.80;;
20336;SDS011;10326;53.660;10.200;2022-08-02T09:16:27;5.95;;;2.08;;
20336;SDS011;10326;53.660;10.200;2022-08-02T09:18:57;4.03;;;1.65;;
20336;SDS011;10326;53.660;10.200;2022-08-02T09:21:33;4.15;;;1.70;;
20336;SDS011;10326;53.660;10.200;2022-08-02T09:24:12;4.07;;;1.80;;
20336;SDS011;10326;53.660;10.200;2022-08-02T09:26:43;2.88;;;1.92;;
20336;SDS011;10326;53.660;10.200;2022-08-02T09:29:11;5.55;;;1.95;;
20336;SDS011;10326;53.660;10.200;2022-08-02T09:31:39;4.53;;;1.90;;
20336;SDS011;10326;53.660;10.200;2022-08-02T09:34:07;5.20;;;1.70;;
20336;SDS011;10326;53.660;10.200;2022-08-02T09:36:39;5.05;;;1.90;;
20336;SDS011;10326;53.660;10.200;2022-08-02T09:39:09;3.13;;;1.48;;
20336;SDS011;10326;53.660;10.200;2022-08-02T09:41:39;4.38;;;1.95;;
20336;SDS011;10326;53.660;10.200;2022-08-02T09:44:10;4.05;;;1.90;;
20336;SDS011;10326;53.660;10.200;2022-08-02T09:46:39;2.75;;;2.00;;
20336;SDS011;10326;53.660;10.200;2022-08-02T09:49:09;3.20;;;2.10;;
20336;SDS011;10326;53.660;10.200;2022-08-02T09:51:38;3.00;;;1.52;;
20336;SDS011;10326;53.660;10.200;2022-08-02T09:54:17;4.40;;;1.80;;
20336;SDS011;10326;53.660;10.200;2022-08-02T09:56:47;3.25;;;1.40;;
20336;SDS011;10326;53.660;10.200;2022-08-02T09:59:16;4.35;;;1.75;;
20336;SDS011;10326;53.660;10.200;2022-08-02T10:01:46;4.97;;;2.20;;
20336;SDS011;10326;53.660;10.200;2022-08-02T10:04:16;2.90;;;1.52;;
20336;SDS011;10326;53.660;10.200;2022-08-02T10:06:47;4.50;;;1.75;;
20336;SDS011;10326;53.660;10.200;2022-08-02T10:09:17;3.33;;;1.60;;
20336;SDS011;10326;53.660;10.200;2022-08-02T10:11:46;4.10;;;2.17;;
20336;SDS011;10326;53.660;10.200;2022-08-02T10:14:14;3.08;;;1.60;;
20336;SDS011;10326;53.660;10.200;2022-08-02T10:16:42;4.05;;;1.80;;
20336;SDS011;10326;53.660;10.200;2022-08-02T10:19:09;3.47;;;1.83;;
20336;SDS011;10326;53.660;10.200;2022-08-02T10:21:38;4.97;;;1.92;;
20336;SDS011;10326;53.660;10.200;2022-08-02T10:24:12;3.10;;;1.60;;
20336;SDS011;10326;53.660;10.200;2022-08-02T10:26:43;3.30;;;1.80;;
20336;SDS011;10326;53.660;10.200;2022-08-02T10:29:14;2.92;;;1.90;;
20336;SDS011;10326;53.660;10.200;2022-08-02T10:31:45;4.47;;;1.80;;
20336;SDS011;10326;53.660;10.200;2022-08-02T10:34:22;3.38;;;1.73;;
20336;SDS011;10326;53.660;10.200;2022-08-02T10:37:00;4.43;;;1.70;;
20336;SDS011;10326;53.660;10.200;2022-08-02T10:39:31;3.42;;;1.60;;
20336;SDS011;10326;53.660;10.200;2022-08-02T10:42:06;3.45;;;1.80;;
20336;SDS011;10326;53.660;10.200;2022-08-02T10:44:34;5.53;;;2.13;;
20336;SDS011;10326;53.660;10.200;2022-08-02T10:47:19;4.13;;;1.75;;
20336;SDS011;10326;53.660;10.200;2022-08-02T10:49:49;3.60;;;1.73;;
20336;SDS011;10326;53.660;10.200;2022-08-02T10:52:18;4.72;;;1.75;;
20336;SDS011;10326;53.660;10.200;2022-08-02T10:54:48;5.15;;;2.30;;
20336;SDS011;10326;53.660;10.200;2022-08-02T10:57:22;6.75;;;2.08;;
20336;SDS011;10326;53.660;10.200;2022-08-02T10:59:54;4.07;;;2.13;;
20336;SDS011;10326;53.660;10.200;2022-08-02T11:02:33;4.57;;;1.90;;
20336;SDS011;10326;53.660;10.200;2022-08-02T11:05:10;6.20;;;1.98;;
20336;SDS011;10326;53.660;10.200;2022-08-02T11:07:40;5.85;;;1.60;;
20336;SDS011;10326;53.660;10.200;2022-08-02T11:13:02;3.22;;;1.67;;
20336;SDS011;10326;53.660;10.200;2022-08-02T11:15:49;7.07;;;2.00;;
20336;SDS011;10326;53.660;10.200;2022-08-02T11:18:19;3.72;;;1.55;;
20336;SDS011;10326;53.660;10.200;2022-08-02T11:23:46;3.13;;;1.58;;
20336;SDS011;10326;53.660;10.200;2022-08-02T11:29:12;4.68;;;1.80;;
20336;SDS011;10326;53.660;10.200;2022-08-02T11:31:39;3.08;;;1.45;;
20336;SDS011;10326;53.660;10.200;2022-08-02T11:34:09;4.07;;;1.70;;
20336;SDS011;10326;53.660;10.200;2022-08-02T11:36:43;2.70;;;1.60;;
20336;SDS011;10326;53.660;10.200;2022-08-02T11:39:12;3.30;;;1.50;;
20336;SDS011;10326;53.660;10.200;2022-08-02T11:41:42;4.43;;;1.50;;
20336;SDS011;10326;53.660;10.200;2022-08-02T11:44:17;2.92;;;1.50;;
20336;SDS011;10326;53.660;10.200;2022-08-02T11:46:52;3.42;;;1.45;;
20336;SDS011;10326;53.660;10.200;2022-08-02T11:49:20;4.82;;;1.67;;
20336;SDS011;10326;53.660;10.200;2022-08-02T11:51:51;3.33;;;1.60;;
20336;SDS011;10326;53.660;10.200;2022-08-02T11:54:22;3.25;;;1.70;;
20336;SDS011;10326;53.660;10.200;2022-08-02T11:56:50;4.18;;;1.40;;
20336;SDS011;10326;53.660;10.200;2022-08-02T11:59:19;2.75;;;1.40;;
20336;SDS011;10326;53.660;10.200;2022-08-02T12:01:47;2.47;;;1.42;;
20336;SDS011;10326;53.660;10.200;2022-08-02T12:04:15;2.35;;;1.50;;
20336;SDS011;10326;53.660;10.200;2022-08-02T12:06:53;2.55;;;1.40;;
20336;SDS011;10326;53.660;10.200;2022-08-02T12:09:22;2.28;;;1.50;;
20336;SDS011;10326;53.660;10.200;2022-08-02T12:11:52;2.83;;;1.42;;
20336;SDS011;10326;53.660;10.200;2022-08-02T12:14:21;4.00;;;1.40;;
20336;SDS011;10326;53.660;10.200;2022-08-02T12:16:50;2.15;;;1.20;;
20336;SDS011;10326;53.660;10.200;2022-08-02T12:19:36;2.33;;;1.50;;
20336;SDS011;10326;53.660;10.200;2022-08-02T12:22:15;2.67;;;1.40;;
20336;SDS011;10326;53.660;10.200;2022-08-02T12:24:44;2.53;;;1.40;;
20336;SDS011;10326;53.660;10.200;2022-08-02T12:27:32;2.15;;;1.20;;
20336;SDS011;10326;53.660;10.200;2022-08-02T12:30:05;2.45;;;1.38;;
20336;SDS011;10326;53.660;10.200;2022-08-02T12:32:34;2.50;;;0.95;;
20336;SDS011;10326;53.660;10.200;2022-08-02T12:35:06;2.03;;;1.50;;
20336;SDS011;10326;53.660;10.200;2022-08-02T12:37:36;3.00;;;1.40;;
20336;SDS011;10326;53.660;10.200;2022-08-02T12:40:21;3.83;;;1.40;;
20336;SDS011;10326;53.660;10.200;2022-08-02T12:42:52;2.50;;;1.17;;
20336;SDS011;10326;53.660;10.200;2022-08-02T12:45:24;2.75;;;1.20;;
20336;SDS011;10326;53.660;10.200;2022-08-02T12:47:54;2.25;;;1.30;;
20336;SDS011;10326;53.660;10.200;2022-08-02T12:50:25;2.70;;;1.50;;
20336;SDS011;10326;53.660;10.200;2022-08-02T12:53:04;3.42;;;1.45;;
20336;SDS011;10326;53.660;10.200;2022-08-02T12:55:34;2.35;;;1.15;;
20336;SDS011;10326;53.660;10.200;2022-08-02T12:58:06;1.77;;;1.20;;
20336;SDS011;10326;53.660;10.200;2022-08-02T13:00:35;3.50;;;1.35;;
20336;SDS011;10326;53.660;10.200;2022-08-02T13:03:04;2.38;;;1.35;;
20336;SDS011;10326;53.660;10.200;2022-08-02T13:05:33;3.22;;;1.10;;
20336;SDS011;10326;53.660;10.200;2022-08-02T13:08:02;4.70;;;1.58;;
20336;SDS011;10326;53.660;10.200;2022-08-02T13:10:30;2.13;;;1.30;;
20336;SDS011;10326;53.660;10.200;2022-08-02T13:12:57;2.42;;;1.27;;
20336;SDS011;10326;53.660;10.200;2022-08-02T13:15:26;2.80;;;0.93;;
20336;SDS011;10326;53.660;10.200;2022-08-02T13:17:55;2.03;;;1.20;;
20336;SDS011;10326;53.660;10.200;2022-08-02T13:20:23;3.10;;;1.33;;
20336;SDS011;10326;53.660;10.200;2022-08-02T13:22:51;3.05;;;1.38;;
20336;SDS011;10326;53.660;10.200;2022-08-02T13:25:19;2.70;;;1.25;;
20336;SDS011;10326;53.660;10.200;2022-08-02T13:27:47;3.03;;;1.25;;
20336;SDS011;10326;53.660;10.200;2022-08-02T13:30:14;2.60;;;1.20;;
20336;SDS011;10326;53.660;10.200;2022-08-02T13:32:42;2.65;;;1.40;;
20336;SDS011;10326;53.660;10.200;2022-08-02T13:35:10;1.88;;;1.35;;
20336;SDS011;10326;53.660;10.200;2022-08-02T13:37:37;2.08;;;1.40;;
20336;SDS011;10326;53.660;10.200;2022-08-02T13:40:07;3.83;;;1.60;;
20336;SDS011;10326;53.660;10.200;2022-08-02T13:42:35;2.90;;;1.48;;
20336;SDS011;10326;53.660;10.200;2022-08-02T13:45:02;2.88;;;1.42;;
20336;SDS011;10326;53.660;10.200;2022-08-02T13:47:30;2.13;;;1.20;;
20336;SDS011;10326;53.660;10.200;2022-08-02T13:49:57;2.45;;;1.30;;
20336;SDS011;10326;53.660;10.200;2022-08-02T13:52:26;3.10;;;1.15;;
20336;SDS011;10326;53.660;10.200;2022-08-02T13:54:53;3.17;;;1.30;;
20336;SDS011;10326;53.660;10.200;2022-08-02T13:57:20;2.95;;;1.20;;
20336;SDS011;10326;53.660;10.200;2022-08-02T13:59:47;1.65;;;1.05;;
20336;SDS011;10326;53.660;10.200;2022-08-02T14:02:15;6.45;;;1.60;;
20336;SDS011;10326;53.660;10.200;2022-08-02T14:04:42;1.70;;;1.10;;
20336;SDS011;10326;53.660;10.200;2022-08-02T14:07:09;2.50;;;1.17;;
20336;SDS011;10326;53.660;10.200;2022-08-02T14:09:39;2.15;;;1.23;;
20336;SDS011;10326;53.660;10.200;2022-08-02T14:12:07;2.70;;;1.30;;
20336;SDS011;10326;53.660;10.200;2022-08-02T14:14:35;1.95;;;1.17;;
20336;SDS011;10326;53.660;10.200;2022-08-02T14:17:03;1.80;;;1.00;;
20336;SDS011;10326;53.660;10.200;2022-08-02T14:19:30;2.55;;;1.20;;
20336;SDS011;10326;53.660;10.200;2022-08-02T14:21:57;2.25;;;1.30;;
20336;SDS011;10326;53.660;10.200;2022-08-02T14:24:24;1.35;;;1.00;;
20336;SDS011;10326;53.660;10.200;2022-08-02T14:26:53;1.75;;;1.35;;
20336;SDS011;10326;53.660;10.200;2022-08-02T14:29:21;2.72;;;1.17;;
20336;SDS011;10326;53.660;10.200;2022-08-02T14:31:48;1.40;;;0.82;;
20336;SDS011;10326;53.660;10.200;2022-08-02T14:34:15;1.80;;;1.20;;
20336;SDS011;10326;53.660;10.200;2022-08-02T14:36:42;1.55;;;1.08;;
20336;SDS011;10326;53.660;10.200;2022-08-02T14:39:09;1.65;;;1.20;;
20336;SDS011;10326;53.660;10.200;2022-08-02T14:41:37;2.72;;;1.15;;
20336;SDS011;10326;53.660;10.200;2022-08-02T14:44:05;2.03;;;1.10;;
20336;SDS011;10326;53.660;10.200;2022-08-02T14:46:33;2.22;;;1.30;;
20336;SDS011;10326;53.660;10.200;2022-08-02T14:49:04;1.40;;;1.13;;
20336;SDS011;10326;53.660;10.200;2022-08-02T14:51:32;1.67;;;1.40;;
20336;SDS011;10326;53.660;10.200;2022-08-02T14:54:00;2.33;;;1.30;;
20336;SDS011;10326;53.660;10.200;2022-08-02T14:56:29;2.20;;;1.20;;